Aérodrome :
LOGIN :

S'inscrire | Disclaimer

   EN    FR    IT 

 










Légende :    VFR   VFR Marginal   IFR   IFR Intensif   IFR Très Intensif
Visi : 
Plafond : 
>= 8 km
>= 3000ft
5 à 8 km
1000 à 3000 ft
1500m à 5 km
500 à 1000 ft
800 à 1500m
200 à 500 ft
< 800m
< 200 ft
Symboles :   Orages  Brouillard  Fortes neiges  Fortes précipitations  Vent > 20 kt
SIGMETs :   Divers  Orages  Givrage  Turbulence  Onde Orograph.  Cendres Volcan.







- Altitude de l'aérodrome : 245 ft
- Code IATA : BIQ
- Voir les cartes d'approche


LFBZ - Biarritz

DERNIER METAR :
  • 221830Z AUTO 06003KT CAVOK 18/14 Q1022 NOSIG

METARs EXPIRÉS :
  • 221800Z AUTO 06003KT CAVOK 19/14 Q1021 NOSIG
  • 221730Z AUTO 07003KT CAVOK 19/14 Q1022 NOSIG
  • 221700Z AUTO 07004KT 9999 FEW046 20/14 Q1021 NOSIG
  • 221630Z AUTO 09003KT 040V140 9999 BKN045 20/14 Q1021 NOSIG
  • 221600Z AUTO 09005KT 9999 SCT025 OVC044 20/15 Q1021 NOSIG
  • 221530Z AUTO 05003KT 010V100 9999 BKN025 BKN030 OVC040 20/15 Q1022 NOSIG

TAF TAF LFBZ
Valide du 22 à 18h jusqu'au 23 à 18h UTC


221700Z 2218/2318 03005KT 9999 SCT020 BKN040
BECMG 2218/2220 VRB03KT CAVOK
BECMG 2300/2302 09008KT
Pas de NOTAMs connus pour ce terrain.



MET'MAP, la Météo Aéronautique d'un coup d'oeil ! - Copyright ORBIFLY Décembre 2007 - Disclaimer

ORBIFLY MET'MAP TEAM :

Programmation & Développement : Alexandra Zaïnal
Conception & Développement : Baudouin d'Aumeries
Co-Programmation & Développement : Marc-Olivier Méhu
Soutien technique & logistique : Manuel Goepfert

Contact : metmap@orbifly.com




SOURCES & CREDITS :

   NOAA